Airport View

Enter AWOS ICAO identifier for current METAR.

ex. KFNL

KEHA 212315Z AUTO 18023G28KT 10SM CLR 30/16 A2986 RMK AO2 T03000155

21 Sep 2019 23:40

Frequency: 118.025

Phone: 620-697-4973

Other Area AWOS: KGUY - KHQG - KJHN - KSPD

TAF KGUY 211720Z 2118/2218 22015G25KT P6SM SKC FM212300 19015G25KT P6SM VCTS BKN060CB TEMPO 2207/2211 4SM TSRA BKN040CB FM221300 34014G22KT P6SM SCT100 FM221700 01012G17KT P6SM SKC